Time;durP1;ratioP1;P1;durP2;ratioP2;P2;SDS_P1;SDS_P2;PMS_P1;PMS_P2;Temp;Humidity;BMP_temperature;BMP_pressure;BME280_temperature;BME280_humidity;BME280_pressure;Samples;Min_cycle;Max_cycle;Signal;HPM_P1;HPM_P2
2023/10/24 00:00:35;;;;;;;6.88;2.10;;;12.90;99.90;;;;;;5057261;28;20353;-50
2023/10/24 00:03:00;;;;;;;5.22;1.88;;;12.90;99.90;;;;;;5057082;28;20029;-51
2023/10/24 00:05:28;;;;;;;6.45;1.95;;;12.90;99.90;;;;;;5056119;28;20068;-51
2023/10/24 00:07:54;;;;;;;7.13;2.15;;;13.00;99.90;;;;;;5057175;28;20458;-50
2023/10/24 00:10:19;;;;;;;7.55;2.10;;;13.00;99.90;;;;;;5056882;28;20029;-50
2023/10/24 00:12:45;;;;;;;8.15;2.45;;;13.00;99.90;;;;;;5057060;28;20044;-51
2023/10/24 00:15:11;;;;;;;6.10;1.60;;;13.00;99.90;;;;;;5039251;28;20029;-51
2023/10/24 00:17:36;;;;;;;8.63;2.35;;;13.10;99.90;;;;;;5057101;28;20044;-49
2023/10/24 00:20:02;;;;;;;5.97;2.03;;;13.10;99.90;;;;;;5056952;28;20460;-50
2023/10/24 00:22:28;;;;;;;4.88;1.90;;;13.10;99.90;;;;;;5056499;28;20095;-51
2023/10/24 00:24:53;;;;;;;6.93;2.47;;;13.10;99.90;;;;;;5055547;28;20039;-51
2023/10/24 00:27:19;;;;;;;4.88;2.00;;;13.00;99.90;;;;;;5056104;28;20366;-51
2023/10/24 00:29:45;;;;;;;6.78;2.20;;;13.00;99.90;;;;;;5056825;28;20041;-51
2023/10/24 00:32:11;;;;;;;3.17;1.60;;;13.10;99.90;;;;;;5056798;28;20422;-51
2023/10/24 00:34:37;;;;;;;5.82;2.30;;;13.10;99.90;;;;;;5056433;28;20033;-50
2023/10/24 00:37:03;;;;;;;6.55;2.42;;;13.10;99.90;;;;;;5056625;28;20053;-48
2023/10/24 00:39:29;;;;;;;7.05;2.50;;;13.00;99.90;;;;;;5056668;28;20083;-51
2023/10/24 00:41:54;;;;;;;7.90;2.15;;;13.00;99.90;;;;;;5056520;28;20037;-51
2023/10/24 00:44:20;;;;;;;6.20;2.08;;;13.00;99.90;;;;;;5056552;28;20083;-51
2023/10/24 00:46:46;;;;;;;8.80;1.90;;;13.00;99.90;;;;;;5056463;28;20044;-50
2023/10/24 00:49:11;;;;;;;4.60;1.83;;;13.00;99.90;;;;;;5055252;28;20363;-49
2023/10/24 00:51:37;;;;;;;8.23;2.00;;;13.00;99.90;;;;;;5056519;28;20032;-51
2023/10/24 00:54:03;;;;;;;6.90;2.08;;;13.00;99.90;;;;;;5055120;28;20041;-51
2023/10/24 00:56:29;;;;;;;7.57;2.00;;;13.00;99.90;;;;;;5055410;28;20044;-51
2023/10/24 00:58:55;;;;;;;8.27;1.92;;;13.00;99.90;;;;;;5055146;28;20370;-50
2023/10/24 01:01:21;;;;;;;7.47;1.98;;;12.90;99.90;;;;;;5055120;28;20033;-50
2023/10/24 01:03:47;;;;;;;7.15;2.20;;;12.90;99.90;;;;;;5056189;28;20044;-50
2023/10/24 01:06:12;;;;;;;6.03;1.90;;;12.80;99.90;;;;;;5054866;28;20474;-51
2023/10/24 01:08:38;;;;;;;6.18;2.00;;;12.80;99.90;;;;;;5055872;28;20029;-50
2023/10/24 01:11:04;;;;;;;6.20;1.77;;;12.90;99.90;;;;;;5055842;28;20029;-51
2023/10/24 01:13:30;;;;;;;4.65;1.90;;;12.90;99.90;;;;;;5038189;28;20033;-52
2023/10/24 01:15:55;;;;;;;9.13;1.83;;;12.80;99.90;;;;;;5054818;28;20067;-51
2023/10/24 01:18:21;;;;;;;6.28;1.83;;;12.80;99.90;;;;;;5055546;28;20042;-51
2023/10/24 01:20:47;;;;;;;3.67;1.75;;;13.00;99.90;;;;;;5055597;28;20181;-50
2023/10/24 01:23:12;;;;;;;5.80;1.70;;;13.10;99.90;;;;;;5055863;28;20101;-53
2023/10/24 01:25:39;;;;;;;4.82;2.10;;;13.10;99.90;;;;;;5055789;28;20082;-51
2023/10/24 01:28:06;;;;;;;3.78;1.45;;;13.10;99.90;;;;;;5055232;28;20037;-51
2023/10/24 01:30:32;;;;;;;7.78;2.08;;;13.10;99.90;;;;;;5055399;28;20033;-50
2023/10/24 01:32:58;;;;;;;6.00;1.70;;;13.10;99.90;;;;;;5054417;28;20072;-51
2023/10/24 01:35:23;;;;;;;7.90;2.47;;;13.10;99.90;;;;;;5055531;28;20086;-51
2023/10/24 01:37:49;;;;;;;9.32;2.63;;;13.00;99.90;;;;;;5055545;28;20091;-51
2023/10/24 01:40:15;;;;;;;8.85;2.20;;;13.00;99.90;;;;;;5054532;28;20118;-51
2023/10/24 01:42:40;;;;;;;4.90;1.70;;;13.00;99.90;;;;;;5055502;28;20021;-51
2023/10/24 01:45:07;;;;;;;8.48;2.15;;;12.90;99.90;;;;;;5055307;28;20029;-51
2023/10/24 01:47:33;;;;;;;7.72;2.15;;;12.90;99.90;;;;;;5055296;28;20033;-51
2023/10/24 01:49:58;;;;;;;3.67;1.50;;;12.90;99.90;;;;;;5055252;28;20025;-51
2023/10/24 01:52:24;;;;;;;8.48;2.30;;;12.80;99.90;;;;;;5055044;28;20121;-51
2023/10/24 01:54:50;;;;;;;9.77;2.00;;;12.80;99.90;;;;;;5055006;28;20049;-51
2023/10/24 01:57:16;;;;;;;5.93;1.88;;;12.80;99.90;;;;;;5055087;28;20029;-51
2023/10/24 01:59:42;;;;;;;7.90;3.35;;;12.80;99.90;;;;;;5053803;28;20037;-50
2023/10/24 02:02:07;;;;;;;5.05;1.90;;;12.80;99.90;;;;;;5053891;28;20040;-51
2023/10/24 02:04:33;;;;;;;7.43;2.00;;;12.70;99.90;;;;;;5054917;28;20041;-49
2023/10/24 02:06:59;;;;;;;10.35;2.45;;;12.70;99.90;;;;;;5054906;28;20064;-50
2023/10/24 02:09:24;;;;;;;6.47;2.30;;;12.60;99.90;;;;;;5053874;28;20037;-50
2023/10/24 02:11:50;;;;;;;8.40;2.25;;;12.60;99.90;;;;;;5055098;28;20022;-49
2023/10/24 02:14:15;;;;;;;7.68;2.28;;;12.60;99.90;;;;;;5055102;28;20033;-50
2023/10/24 02:16:41;;;;;;;5.90;2.30;;;12.60;99.90;;;;;;5054996;28;20481;-50
2023/10/24 02:19:07;;;;;;;5.53;2.30;;;12.60;99.90;;;;;;5054841;28;20366;-50
2023/10/24 02:21:32;;;;;;;6.07;2.22;;;12.60;99.90;;;;;;5054930;28;20041;-49
2023/10/24 02:23:58;;;;;;;7.10;2.83;;;12.50;99.90;;;;;;5054669;28;20430;-51
2023/10/24 02:26:23;;;;;;;9.50;2.45;;;12.50;99.90;;;;;;5053503;28;20036;-51
2023/10/24 02:28:49;;;;;;;6.88;2.75;;;12.50;99.90;;;;;;5054960;28;20434;-51
2023/10/24 02:31:15;;;;;;;5.20;2.28;;;12.50;99.90;;;;;;5054648;28;20032;-51
2023/10/24 02:33:41;;;;;;;4.63;2.20;;;12.50;99.90;;;;;;5054866;28;20422;-51
2023/10/24 02:36:10;;;;;;;6.57;2.35;;;12.40;99.90;;;;;;5054749;28;20033;-51
2023/10/24 02:38:36;;;;;;;4.38;1.90;;;12.40;99.90;;;;;;5054669;28;20354;-51
2023/10/24 02:41:03;;;;;;;3.33;1.60;;;12.40;99.90;;;;;;5053616;28;20040;-51
2023/10/24 02:43:29;;;;;;;2.47;1.20;;;12.30;99.90;;;;;;5054579;28;20033;-53
2023/10/24 02:45:55;;;;;;;4.03;1.48;;;12.20;99.90;;;;;;5053551;28;20048;-47
2023/10/24 02:48:21;;;;;;;3.63;1.30;;;12.20;99.90;;;;;;5054303;28;20036;-50
2023/10/24 02:50:53;;;;;;;4.93;1.77;;;12.10;99.90;;;;;;5055925;28;20028;-47
2023/10/24 02:53:19;;;;;;;2.90;1.40;;;12.00;99.90;;;;;;5058810;28;20033;-51
2023/10/24 02:55:44;;;;;;;4.25;1.60;;;12.00;99.90;;;;;;5058610;28;20051;-51
2023/10/24 02:58:10;;;;;;;4.40;1.60;;;12.00;99.90;;;;;;5058646;28;20041;-49
2023/10/24 03:00:35;;;;;;;3.85;1.58;;;11.90;99.90;;;;;;5057671;28;20409;-49
2023/10/24 03:03:02;;;;;;;3.00;1.40;;;11.90;99.90;;;;;;5058322;28;20025;-49
2023/10/24 03:05:28;;;;;;;2.33;1.20;;;11.80;99.90;;;;;;5058273;28;20035;-50
2023/10/24 03:07:54;;;;;;;3.85;1.27;;;11.80;99.90;;;;;;5058319;28;20032;-48
2023/10/24 03:10:20;;;;;;;2.70;1.10;;;11.80;99.90;;;;;;5058183;28;20033;-50
2023/10/24 03:12:45;;;;;;;3.38;1.10;;;11.70;99.90;;;;;;5058122;28;20025;-47
2023/10/24 03:15:11;;;;;;;3.33;1.20;;;11.70;99.90;;;;;;5058188;28;20108;-48
2023/10/24 03:17:37;;;;;;;3.42;1.10;;;11.70;99.90;;;;;;5057770;28;20025;-50
2023/10/24 03:20:04;;;;;;;6.35;1.42;;;11.60;99.90;;;;;;5058104;28;20029;-48
2023/10/24 03:22:30;;;;;;;1.83;1.10;;;11.60;99.90;;;;;;5058002;28;20029;-51
2023/10/24 03:24:56;;;;;;;2.90;1.48;;;11.60;99.90;;;;;;5057815;28;20407;-50
2023/10/24 03:27:22;;;;;;;2.67;1.20;;;11.60;99.90;;;;;;5057916;28;20454;-51
2023/10/24 03:29:47;;;;;;;1.80;1.00;;;11.60;99.90;;;;;;5057968;28;20439;-51
2023/10/24 03:32:14;;;;;;;3.15;1.10;;;11.60;99.90;;;;;;5056737;28;20431;-51
2023/10/24 03:34:40;;;;;;;2.72;1.00;;;11.60;99.90;;;;;;5057817;28;20469;-51
2023/10/24 03:37:06;;;;;;;2.00;1.08;;;11.60;99.90;;;;;;5057628;28;20073;-50
2023/10/24 03:39:31;;;;;;;2.38;1.10;;;11.60;99.90;;;;;;5057708;28;20086;-51
2023/10/24 03:41:57;;;;;;;4.43;1.10;;;11.60;99.90;;;;;;5057725;28;20111;-52
2023/10/24 03:44:23;;;;;;;3.60;1.20;;;11.60;99.90;;;;;;5056277;28;20463;-51
2023/10/24 03:46:49;;;;;;;4.07;1.20;;;11.50;99.90;;;;;;5057575;28;20394;-50
2023/10/24 03:49:15;;;;;;;2.53;1.42;;;11.50;99.90;;;;;;5056156;28;20424;-50
2023/10/24 03:51:41;;;;;;;4.68;1.70;;;11.50;99.90;;;;;;5057542;28;20106;-51
2023/10/24 03:54:06;;;;;;;2.22;1.20;;;11.50;99.90;;;;;;5057513;28;20021;-51
2023/10/24 03:56:32;;;;;;;2.33;1.55;;;11.40;99.90;;;;;;5057595;28;20094;-51
2023/10/24 03:58:59;;;;;;;2.20;1.35;;;11.30;99.90;;;;;;5057214;28;20450;-51
2023/10/24 04:01:25;;;;;;;2.70;1.38;;;11.30;99.90;;;;;;5056745;28;20025;-51
2023/10/24 04:03:50;;;;;;;4.22;1.50;;;11.30;99.90;;;;;;5056579;28;20037;-51
2023/10/24 04:06:16;;;;;;;3.92;1.92;;;11.40;99.90;;;;;;5057032;28;20053;-51
2023/10/24 04:08:42;;;;;;;5.03;1.90;;;11.40;99.90;;;;;;5057159;28;20358;-48
2023/10/24 04:11:15;;;;;;;5.40;1.88;;;11.40;99.90;;;;;;5057394;28;20028;-47
2023/10/24 04:13:45;;;;;;;3.35;1.75;;;11.40;99.90;;;;;;5055736;28;20111;-50
2023/10/24 04:16:11;;;;;;;6.55;1.90;;;11.40;99.90;;;;;;5057105;28;20041;-48
2023/10/24 04:18:37;;;;;;;3.78;1.90;;;11.40;99.90;;;;;;5056987;28;20036;-48
2023/10/24 04:21:03;;;;;;;5.75;1.75;;;11.50;99.90;;;;;;5056606;28;20481;-49
2023/10/24 04:23:28;;;;;;;6.28;2.00;;;11.50;99.90;;;;;;5055761;28;20033;-50
2023/10/24 04:25:54;;;;;;;3.78;1.80;;;11.40;99.90;;;;;;5056883;28;20405;-48
2023/10/24 04:28:20;;;;;;;4.40;2.47;;;11.40;99.90;;;;;;5055562;28;20362;-50
2023/10/24 04:30:45;;;;;;;5.45;2.00;;;11.40;99.90;;;;;;5056574;28;20090;-50
2023/10/24 04:33:11;;;;;;;3.00;1.70;;;11.50;99.90;;;;;;5056624;28;20406;-50
2023/10/24 04:35:46;;;;;;;5.78;2.05;;;11.50;99.90;;;;;;5056719;28;20084;-50
2023/10/24 04:38:11;;;;;;;4.75;2.10;;;11.50;99.90;;;;;;5056186;28;20033;-48
2023/10/24 04:40:38;;;;;;;8.20;2.28;;;11.50;99.90;;;;;;5056692;28;20029;-49
2023/10/24 04:43:04;;;;;;;5.57;1.92;;;11.60;99.90;;;;;;5056360;28;20033;-51
2023/10/24 04:45:31;;;;;;;5.35;2.17;;;11.70;99.90;;;;;;5055472;28;20049;-50
2023/10/24 04:47:58;;;;;;;4.85;1.80;;;11.60;99.90;;;;;;5056545;28;20083;-50
2023/10/24 04:50:24;;;;;;;4.72;1.75;;;11.60;99.90;;;;;;5056386;28;20037;-49
2023/10/24 04:52:50;;;;;;;2.97;1.60;;;11.60;99.90;;;;;;5056044;28;20082;-51
2023/10/24 04:55:16;;;;;;;3.97;1.90;;;11.60;99.90;;;;;;5056265;28;20041;-51
2023/10/24 04:57:42;;;;;;;7.13;1.90;;;11.50;99.90;;;;;;5056267;28;20108;-50
2023/10/24 05:00:12;;;;;;;3.38;1.70;;;11.50;99.90;;;;;;5056336;28;20476;-51
2023/10/24 05:02:41;;;;;;;3.40;1.80;;;11.50;99.90;;;;;;5056187;28;20507;-51
2023/10/24 05:05:07;;;;;;;4.70;2.17;;;11.50;99.90;;;;;;5056107;28;20040;-50
2023/10/24 05:07:33;;;;;;;3.45;1.90;;;11.50;99.90;;;;;;5055431;28;20110;-51
2023/10/24 05:09:58;;;;;;;4.85;2.03;;;11.50;99.90;;;;;;5055953;28;20442;-50
2023/10/24 05:12:24;;;;;;;3.15;1.75;;;11.50;99.90;;;;;;5054795;28;20075;-51
2023/10/24 05:14:49;;;;;;;2.65;1.60;;;11.40;99.90;;;;;;5055743;28;20098;-51
2023/10/24 05:17:15;;;;;;;6.40;1.75;;;11.40;99.90;;;;;;5056172;28;20099;-50
2023/10/24 05:19:44;;;;;;;4.55;1.73;;;11.40;99.90;;;;;;5054802;28;20135;-51
2023/10/24 05:22:14;;;;;;;3.13;1.40;;;11.40;99.90;;;;;;5055848;28;20056;-51
2023/10/24 05:24:39;;;;;;;2.13;1.30;;;11.40;99.90;;;;;;5055253;28;20037;-50
2023/10/24 05:27:05;;;;;;;2.20;1.02;;;11.40;99.90;;;;;;5055672;28;20043;-51
2023/10/24 05:29:34;;;;;;;3.65;1.20;;;11.50;99.90;;;;;;5055627;28;20029;-50
2023/10/24 05:32:00;;;;;;;1.60;1.10;;;11.60;99.90;;;;;;5055802;28;20029;-50
2023/10/24 05:34:31;;;;;;;2.58;1.10;;;11.70;99.90;;;;;;5055261;28;20572;-50
2023/10/24 05:36:57;;;;;;;2.13;1.00;;;11.70;99.90;;;;;;5055627;28;20128;-50
2023/10/24 05:39:28;;;;;;;1.17;0.93;;;11.80;99.90;;;;;;5055001;28;20124;-51
2023/10/24 05:41:54;;;;;;;1.48;0.90;;;11.70;99.90;;;;;;5055465;28;20025;-50
2023/10/24 05:44:19;;;;;;;1.77;1.00;;;11.70;99.90;;;;;;5055292;28;20105;-51
2023/10/24 05:46:46;;;;;;;1.48;0.80;;;11.70;99.90;;;;;;5055313;28;20365;-50
2023/10/24 05:49:11;;;;;;;2.83;1.10;;;11.70;99.90;;;;;;5055263;28;20029;-50
2023/10/24 05:51:37;;;;;;;1.42;0.93;;;11.70;99.90;;;;;;5055247;28;20527;-50
2023/10/24 05:54:03;;;;;;;0.95;0.80;;;11.70;99.90;;;;;;5053906;28;20417;-51
2023/10/24 05:56:28;;;;;;;1.15;0.80;;;11.70;99.90;;;;;;5054900;28;20029;-50
2023/10/24 05:58:54;;;;;;;0.77;0.70;;;11.70;99.90;;;;;;5054716;28;20106;-49
2023/10/24 06:01:20;;;;;;;0.60;0.60;;;11.70;99.90;;;;;;5055160;28;20033;-49
2023/10/24 06:03:46;;;;;;;1.85;0.70;;;11.70;99.90;;;;;;5055109;28;20439;-51
2023/10/24 06:06:12;;;;;;;0.95;0.65;;;11.70;99.90;;;;;;5054831;28;20049;-51
2023/10/24 06:08:38;;;;;;;0.70;0.70;;;11.60;99.90;;;;;;5054718;28;20102;-50
2023/10/24 06:11:04;;;;;;;3.08;0.85;;;11.60;99.90;;;;;;5054017;28;20388;-49
2023/10/24 06:13:31;;;;;;;1.00;0.60;;;11.50;99.90;;;;;;5054880;28;20087;-49
2023/10/24 06:16:08;;;;;;;0.70;0.70;;;11.40;99.90;;;;;;5054881;28;20029;-51
2023/10/24 06:18:34;;;;;;;1.63;0.80;;;11.30;99.90;;;;;;5053829;28;20048;-51
2023/10/24 06:21:03;;;;;;;0.80;0.70;;;11.30;99.90;;;;;;5054664;28;20040;-51
2023/10/24 06:23:29;;;;;;;2.20;1.20;;;11.20;99.90;;;;;;5054538;28;20021;-50
2023/10/24 06:25:56;;;;;;;2.85;1.20;;;11.20;99.90;;;;;;5054126;28;20099;-51
2023/10/24 06:28:22;;;;;;;2.70;2.28;;;11.20;99.90;;;;;;5054405;28;20029;-50
2023/10/24 06:30:48;;;;;;;2.58;1.05;;;11.20;99.90;;;;;;5053438;28;20037;-51
2023/10/24 06:33:14;;;;;;;5.05;1.30;;;11.20;99.90;;;;;;5054712;28;20040;-51
2023/10/24 06:35:39;;;;;;;4.20;1.50;;;11.10;99.90;;;;;;5054651;28;20032;-50
2023/10/24 06:38:05;;;;;;;4.30;1.30;;;11.10;99.90;;;;;;5054652;28;20335;-51
2023/10/24 06:40:31;;;;;;;2.92;1.23;;;11.20;99.90;;;;;;5054482;28;20044;-50
2023/10/24 06:42:58;;;;;;;1.30;0.90;;;11.20;99.90;;;;;;5054403;28;20032;-51
2023/10/24 06:45:24;;;;;;;1.92;0.95;;;11.20;99.90;;;;;;5053355;28;20029;-48
2023/10/24 06:47:49;;;;;;;2.33;1.10;;;11.20;99.90;;;;;;5053473;28;20037;-50
2023/10/24 06:50:15;;;;;;;4.85;1.73;;;11.20;99.90;;;;;;5054519;28;20041;-50
2023/10/24 06:52:42;;;;;;;2.13;1.20;;;11.20;99.90;;;;;;5054415;28;20029;-50
2023/10/24 06:55:08;;;;;;;2.22;1.38;;;11.20;99.90;;;;;;5054485;28;20075;-51
2023/10/24 06:57:34;;;;;;;6.85;6.22;;;11.20;99.90;;;;;;5054782;28;20342;-46
2023/10/24 06:59:59;;;;;;;3.42;2.50;;;11.20;99.90;;;;;;5052964;28;20029;-51
2023/10/24 07:02:25;;;;;;;3.25;2.08;;;11.10;99.90;;;;;;5054113;28;20033;-51
2023/10/24 07:04:51;;;;;;;3.05;1.90;;;11.10;99.90;;;;;;5053893;28;20397;-51
2023/10/24 07:07:16;;;;;;;4.15;1.70;;;11.10;99.90;;;;;;5053947;28;20053;-50
2023/10/24 07:09:42;;;;;;;3.95;1.88;;;11.10;99.90;;;;;;5054469;28;20461;-50
2023/10/24 07:12:08;;;;;;;3.55;2.10;;;11.00;99.90;;;;;;5054326;28;20078;-51
2023/10/24 07:14:33;;;;;;;2.92;1.95;;;11.00;99.90;;;;;;5054012;28;20104;-51
2023/10/24 07:16:59;;;;;;;3.95;1.55;;;11.00;99.90;;;;;;5054180;28;20087;-51
2023/10/24 07:19:25;;;;;;;4.88;1.30;;;11.00;99.90;;;;;;5054202;28;20116;-49
2023/10/24 07:21:50;;;;;;;3.08;1.50;;;11.00;99.90;;;;;;5054101;28;20048;-51
2023/10/24 07:24:16;;;;;;;2.28;1.60;;;11.00;99.90;;;;;;5054023;28;20037;-49
2023/10/24 07:26:41;;;;;;;2.30;1.52;;;11.00;99.90;;;;;;5053568;28;20030;-51
2023/10/24 07:29:07;;;;;;;3.53;1.20;;;11.00;99.90;;;;;;5053735;28;20025;-47
2023/10/24 07:31:33;;;;;;;5.32;2.28;;;11.00;99.90;;;;;;5053965;28;20029;-50
2023/10/24 07:33:59;;;;;;;3.00;1.75;;;11.00;99.90;;;;;;5054033;28;20036;-51
2023/10/24 07:36:30;;;;;;;2.58;1.60;;;11.00;99.90;;;;;;5054526;28;20041;-51
2023/10/24 07:38:56;;;;;;;1.92;1.55;;;11.00;99.90;;;;;;5057535;28;20061;-49
2023/10/24 07:41:22;;;;;;;2.78;2.08;;;11.00;99.90;;;;;;5057343;28;20029;-50
2023/10/24 07:43:48;;;;;;;34.50;32.35;;;11.00;99.90;;;;;;5057496;28;20362;-50
2023/10/24 07:46:13;;;;;;;4.47;4.03;;;11.00;99.90;;;;;;5057288;28;20062;-47
2023/10/24 07:48:39;;;;;;;5.50;2.88;;;11.00;99.90;;;;;;5057313;28;20029;-50
2023/10/24 07:51:04;;;;;;;4.15;2.25;;;11.00;99.90;;;;;;5057169;28;20025;-48
2023/10/24 07:53:30;;;;;;;3.38;1.80;;;11.00;99.90;;;;;;5057211;28;20043;-51
2023/10/24 07:55:56;;;;;;;5.25;2.10;;;11.00;99.90;;;;;;5057289;28;20036;-50
2023/10/24 07:58:21;;;;;;;5.50;2.65;;;11.00;99.90;;;;;;5056445;28;20029;-50
2023/10/24 08:00:47;;;;;;;5.18;1.85;;;11.10;99.90;;;;;;5056624;28;20033;-51
2023/10/24 08:03:14;;;;;;;5.95;2.10;;;11.10;99.90;;;;;;5055802;28;20037;-50
2023/10/24 08:05:41;;;;;;;3.65;1.80;;;11.10;99.90;;;;;;5056698;28;20160;-51
2023/10/24 08:08:06;;;;;;;2.25;1.13;;;11.20;99.90;;;;;;5056878;28;20112;-50
2023/10/24 08:10:32;;;;;;;3.22;1.30;;;11.20;99.90;;;;;;5056634;28;20493;-48
2023/10/24 08:13:01;;;;;;;4.07;1.40;;;11.20;99.90;;;;;;5056234;28;20043;-49
2023/10/24 08:15:27;;;;;;;4.65;1.98;;;11.30;99.90;;;;;;5056591;28;20037;-49
2023/10/24 08:17:53;;;;;;;2.60;1.30;;;11.30;99.90;;;;;;5056698;28;20104;-50
2023/10/24 08:20:19;;;;;;;2.72;1.65;;;11.30;99.90;;;;;;5056342;28;20049;-51
2023/10/24 08:22:45;;;;;;;4.45;2.25;;;11.40;99.90;;;;;;5056283;28;20041;-51
2023/10/24 08:25:10;;;;;;;3.17;1.60;;;11.40;99.90;;;;;;5056297;28;20033;-50
2023/10/24 08:27:36;;;;;;;3.75;1.63;;;11.50;99.90;;;;;;5056684;28;20025;-51
2023/10/24 08:30:06;;;;;;;3.35;1.65;;;11.50;99.90;;;;;;5055253;28;20071;-48
2023/10/24 08:32:32;;;;;;;3.80;1.60;;;11.50;99.90;;;;;;5056314;28;20408;-50
2023/10/24 08:34:58;;;;;;;4.85;1.65;;;11.60;99.90;;;;;;5055541;28;20037;-51
2023/10/24 08:37:24;;;;;;;4.35;1.20;;;11.60;99.90;;;;;;5054896;28;20041;-51
2023/10/24 08:39:50;;;;;;;2.05;1.33;;;11.60;99.90;;;;;;5056394;28;20039;-51
2023/10/24 08:42:15;;;;;;;2.83;1.13;;;11.70;99.90;;;;;;5055071;28;20028;-50
2023/10/24 08:44:41;;;;;;;2.75;1.25;;;11.70;99.90;;;;;;5056013;28;20438;-51
2023/10/24 08:47:08;;;;;;;3.28;1.60;;;11.70;99.90;;;;;;5055901;28;20043;-52
2023/10/24 08:49:37;;;;;;;3.83;1.40;;;11.80;99.90;;;;;;5054531;28;20025;-52
2023/10/24 08:52:06;;;;;;;5.03;2.10;;;11.80;99.90;;;;;;5056123;28;20136;-50
2023/10/24 08:54:32;;;;;;;6.05;1.90;;;12.00;99.90;;;;;;5054768;28;20682;-50
2023/10/24 08:57:01;;;;;;;6.90;1.80;;;12.10;99.90;;;;;;5056257;28;20124;-49
2023/10/24 08:59:28;;;;;;;5.65;2.40;;;12.20;99.90;;;;;;5054521;28;20453;-50
2023/10/24 09:01:54;;;;;;;6.45;2.22;;;12.30;99.90;;;;;;5054576;28;20120;-50
2023/10/24 09:04:20;;;;;;;4.18;1.67;;;12.40;99.90;;;;;;5055600;28;20111;-48
2023/10/24 09:06:48;;;;;;;4.20;1.40;;;12.50;99.90;;;;;;5055401;28;20049;-47
2023/10/24 09:09:15;;;;;;;4.45;1.42;;;12.50;99.90;;;;;;5055510;28;20107;-48
2023/10/24 09:11:53;;;;;;;3.35;1.55;;;12.50;99.90;;;;;;5055418;28;20057;-48
2023/10/24 09:14:19;;;;;;;1.00;0.90;;;12.60;99.90;;;;;;5055415;28;20462;-48
2023/10/24 09:16:53;;;;;;;3.60;1.30;;;12.60;99.90;;;;;;5055089;28;20052;-49
2023/10/24 09:19:19;;;;;;;2.63;1.33;;;12.60;99.90;;;;;;5054600;28;20036;-47
2023/10/24 09:21:44;;;;;;;3.78;1.55;;;12.70;99.90;;;;;;5055545;28;20045;-49
2023/10/24 09:24:13;;;;;;;8.00;3.65;;;12.70;99.90;;;;;;5054294;28;20146;-50
2023/10/24 09:26:49;;;;;;;13.63;6.65;;;12.80;99.90;;;;;;5055521;28;20056;-50
2023/10/24 09:29:15;;;;;;;12.40;3.95;;;12.90;99.90;;;;;;5054271;28;20035;-47
2023/10/24 09:31:41;;;;;;;23.27;8.48;;;13.00;99.90;;;;;;5037769;28;20123;-49
2023/10/24 09:34:07;;;;;;;5.85;2.85;;;13.00;99.90;;;;;;5055302;28;20033;-50
2023/10/24 09:36:34;;;;;;;6.35;2.92;;;13.00;99.90;;;;;;5054862;28;20045;-51
2023/10/24 09:38:59;;;;;;;2.78;1.20;;;12.90;99.90;;;;;;5055104;28;20033;-49
2023/10/24 09:41:25;;;;;;;1.90;1.10;;;13.00;99.90;;;;;;5037259;28;20047;-51
2023/10/24 09:43:51;;;;;;;2.72;1.02;;;13.10;99.90;;;;;;5053791;28;20124;-50
2023/10/24 09:46:19;;;;;;;2.90;1.08;;;13.30;99.90;;;;;;5037101;28;20430;-50
2023/10/24 09:48:45;;;;;;;3.05;1.08;;;13.50;99.90;;;;;;5053815;28;20548;-51
2023/10/24 09:51:11;;;;;;;2.00;1.00;;;13.60;99.90;;;;;;5036942;28;20033;-51
2023/10/24 09:53:36;;;;;;;3.40;1.00;;;13.60;99.90;;;;;;5037098;28;20044;-50
2023/10/24 09:56:02;;;;;;;3.47;1.35;;;13.60;99.90;;;;;;5037126;28;20073;-50
2023/10/24 09:58:28;;;;;;;3.88;1.67;;;13.40;99.90;;;;;;5036976;28;20037;-50
2023/10/24 10:00:54;;;;;;;5.47;1.40;;;13.40;99.90;;;;;;5052514;28;20033;-50
2023/10/24 10:03:20;;;;;;;4.13;1.67;;;13.30;99.90;;;;;;5053322;28;20028;-51
2023/10/24 10:05:46;;;;;;;3.53;1.40;;;13.20;99.90;;;;;;5054345;28;20090;-50
2023/10/24 10:08:11;;;;;;;2.30;0.98;;;13.30;99.90;;;;;;5053163;28;20029;-50
2023/10/24 10:10:37;;;;;;;4.30;1.33;;;13.40;99.90;;;;;;5053003;28;20029;-50
2023/10/24 10:13:05;;;;;;;4.10;1.40;;;13.40;99.90;;;;;;5053012;28;20112;-50
2023/10/24 10:16:09;;;;;;;3.67;1.30;;;13.50;99.90;;;;;;5054194;28;20025;-52
2023/10/24 10:18:42;;;;;;;1.45;0.80;;;13.60;99.90;;;;;;5053381;28;20462;-49
2023/10/24 10:21:45;;;;;;;1.27;0.70;;;13.50;99.90;;;;;;5054255;28;20048;-51
2023/10/24 10:24:52;;;;;;;1.58;1.00;;;13.50;99.90;;;;;;5054300;28;20033;-50
2023/10/24 10:27:27;;;;;;;1.45;0.90;;;13.70;99.90;;;;;;5054470;28;20156;-49
2023/10/24 10:30:18;;;;;;;1.77;0.73;;;13.90;99.90;;;;;;5054561;28;20036;-51
2023/10/24 10:33:09;;;;;;;5.13;1.30;;;14.10;99.90;;;;;;5038362;28;20037;-52
2023/10/24 10:35:53;;;;;;;7.15;2.30;;;14.50;99.90;;;;;;5054445;28;20037;-51
2023/10/24 10:38:25;;;;;;;3.28;1.30;;;15.70;99.90;;;;;;5053734;28;20029;-53
2023/10/24 10:40:50;;;;;;;3.92;1.75;;;17.10;99.90;;;;;;5053781;28;20199;-51
2023/10/24 10:43:31;;;;;;;3.05;1.10;;;18.40;96.90;;;;;;5053871;28;20139;-50
2023/10/24 10:46:18;;;;;;;3.20;1.38;;;17.40;96.00;;;;;;5052754;28;20084;-51
2023/10/24 10:48:44;;;;;;;5.47;1.45;;;16.40;99.80;;;;;;5053042;28;20102;-49
2023/10/24 10:51:16;;;;;;;2.58;1.10;;;15.60;99.90;;;;;;5053689;28;20103;-49
2023/10/24 10:53:52;;;;;;;3.60;1.20;;;15.10;99.90;;;;;;5054223;28;20048;-50
2023/10/24 10:56:23;;;;;;;5.05;2.00;;;14.80;99.90;;;;;;5054031;28;20094;-47
2023/10/24 10:59:12;;;;;;;5.38;1.70;;;14.60;99.90;;;;;;5053748;28;20033;-46
2023/10/24 11:01:59;;;;;;;3.63;1.65;;;14.30;99.90;;;;;;5054159;28;20112;-50
2023/10/24 11:04:25;;;;;;;2.83;1.15;;;14.20;99.90;;;;;;5054177;28;20052;-51
2023/10/24 11:06:51;;;;;;;4.80;1.80;;;14.30;99.90;;;;;;5053888;28;20053;-51
2023/10/24 11:09:20;;;;;;;4.90;1.90;;;14.30;99.90;;;;;;5053742;28;20056;-50
2023/10/24 11:11:46;;;;;;;4.25;1.40;;;14.20;99.90;;;;;;5055194;28;20120;-47
2023/10/24 11:14:19;;;;;;;7.93;2.45;;;14.10;99.90;;;;;;5039890;28;20115;-50
2023/10/24 11:16:49;;;;;;;4.75;1.40;;;14.30;99.90;;;;;;5057202;28;20032;-51
2023/10/24 11:19:22;;;;;;;7.57;2.38;;;14.40;99.90;;;;;;5056363;28;20051;-51
2023/10/24 11:21:48;;;;;;;15.30;6.22;;;14.80;99.90;;;;;;5056183;28;20048;-50
2023/10/24 11:24:20;;;;;;;5.05;2.50;;;15.40;99.90;;;;;;5057076;28;20045;-51
2023/10/24 11:26:54;;;;;;;6.38;1.70;;;16.70;99.90;;;;;;5057013;28;20167;-51
2023/10/24 11:29:20;;;;;;;7.18;3.38;;;18.70;95.30;;;;;;5057047;28;20029;-49
2023/10/24 11:31:45;;;;;;;3.10;1.00;;;20.60;77.90;;;;;;5057295;28;20086;-51
2023/10/24 11:34:13;;;;;;;4.30;1.55;;;20.80;61.00;;;;;;5057340;28;20029;-51
2023/10/24 11:36:42;;;;;;;3.55;1.00;;;19.70;70.50;;;;;;5056791;28;20443;-51
2023/10/24 11:39:08;;;;;;;1.90;0.80;;;18.90;72.10;;;;;;5057080;28;20029;-51
2023/10/24 11:41:35;;;;;;;2.60;0.82;;;18.80;75.90;;;;;;5057173;28;20489;-48
2023/10/24 11:44:01;;;;;;;3.15;1.02;;;18.40;79.40;;;;;;5057257;28;20037;-50
2023/10/24 11:46:27;;;;;;;3.92;1.00;;;17.00;89.80;;;;;;5057024;28;20315;-50
2023/10/24 11:48:52;;;;;;;4.22;1.00;;;16.30;96.70;;;;;;5055767;28;20025;-52
2023/10/24 11:51:18;;;;;;;1.33;0.88;;;16.20;99.50;;;;;;5056918;28;20090;-51
2023/10/24 11:53:44;;;;;;;2.45;0.85;;;16.10;99.90;;;;;;5056613;28;20469;-47
2023/10/24 11:56:09;;;;;;;3.42;0.95;;;16.00;99.70;;;;;;5055434;28;20036;-50
2023/10/24 11:58:35;;;;;;;5.95;2.20;;;15.90;99.90;;;;;;5055785;28;20040;-48
2023/10/24 12:01:01;;;;;;;2.15;0.85;;;15.90;99.90;;;;;;5056352;28;20033;-51
2023/10/24 12:03:45;;;;;;;4.75;1.00;;;16.00;99.90;;;;;;5056369;28;20119;-50
2023/10/24 12:06:11;;;;;;;2.03;0.93;;;16.00;99.90;;;;;;5056528;28;20130;-51
2023/10/24 12:08:36;;;;;;;2.33;0.80;;;15.70;98.40;;;;;;5056437;28;20076;-50
2023/10/24 12:11:02;;;;;;;3.78;1.20;;;15.50;99.90;;;;;;5056421;28;20398;-51
2023/10/24 12:13:28;;;;;;;4.55;1.00;;;15.60;99.90;;;;;;5055279;28;20120;-51
2023/10/24 12:15:53;;;;;;;3.17;1.20;;;16.10;99.90;;;;;;5055112;28;20036;-51
2023/10/24 12:18:19;;;;;;;4.13;1.52;;;16.20;99.70;;;;;;5038401;28;20089;-51
2023/10/24 12:20:45;;;;;;;3.47;1.23;;;16.40;97.50;;;;;;5056147;28;20032;-51
2023/10/24 12:23:10;;;;;;;6.15;1.42;;;16.40;98.50;;;;;;5054042;28;20033;-53
2023/10/24 12:25:36;;;;;;;3.15;1.38;;;16.20;98.90;;;;;;5056577;28;20339;-52
2023/10/24 12:28:01;;;;;;;5.07;2.00;;;15.90;99.90;;;;;;5056222;28;20029;-52
2023/10/24 12:30:28;;;;;;;2.22;1.05;;;16.00;99.90;;;;;;5056189;28;20059;-52
2023/10/24 12:32:54;;;;;;;5.95;1.58;;;16.20;99.50;;;;;;5056295;28;20324;-52
2023/10/24 12:35:20;;;;;;;3.83;1.08;;;16.10;97.60;;;;;;5056109;28;20120;-52
2023/10/24 12:37:45;;;;;;;4.18;1.30;;;17.20;92.80;;;;;;5056090;28;20044;-52
2023/10/24 12:40:11;;;;;;;1.52;0.80;;;18.70;82.70;;;;;;5054792;28;20531;-53
2023/10/24 12:42:37;;;;;;;56.42;21.48;;;18.10;81.50;;;;;;5054532;28;20028;-53
2023/10/24 12:45:03;;;;;;;5.07;1.27;;;17.30;89.50;;;;;;5055833;28;20489;-52